createdAt,value
2023-05-05T00:03:42.825Z,28.23
2023-05-05T00:07:45.145Z,24.00
2023-05-05T00:11:47.414Z,24.25
2023-05-05T00:15:51.229Z,26.80
2023-05-05T00:19:53.562Z,26.40
2023-05-05T00:23:55.944Z,23.42
2023-05-05T00:27:58.029Z,21.40
2023-05-05T00:32:00.120Z,27.67
2023-05-05T00:36:02.560Z,24.25
2023-05-05T00:40:05.774Z,24.50
2023-05-05T00:44:08.264Z,24.67
2023-05-05T00:48:10.362Z,22.77
2023-05-05T00:52:12.984Z,27.63
2023-05-05T00:56:17.340Z,23.67
2023-05-05T01:00:19.671Z,23.25
2023-05-05T01:04:21.618Z,22.60
2023-05-05T01:08:38.345Z,30.00
2023-05-05T01:13:18.602Z,24.98
2023-05-05T01:17:28.885Z,19.50
2023-05-05T01:21:40.329Z,18.67
2023-05-05T01:26:07.702Z,23.48
2023-05-05T01:30:50.002Z,24.88
2023-05-05T01:35:15.228Z,24.08
2023-05-05T01:39:19.128Z,27.90
2023-05-05T01:43:23.429Z,27.00
2023-05-05T01:47:26.726Z,26.13
2023-05-05T01:51:30.057Z,23.33
2023-05-05T01:55:33.483Z,24.90
2023-05-05T01:59:37.976Z,24.30
2023-05-05T02:03:42.013Z,28.13
2023-05-05T02:07:45.720Z,26.25
2023-05-05T02:11:48.626Z,27.73
2023-05-05T02:15:52.097Z,24.55
2023-05-05T02:19:55.766Z,20.17
2023-05-05T02:23:58.437Z,28.85
2023-05-05T02:28:02.499Z,27.35
2023-05-05T02:32:14.240Z,20.92
2023-05-05T02:36:25.983Z,24.02
2023-05-05T02:40:35.350Z,26.15
2023-05-05T02:44:42.516Z,28.02
2023-05-05T02:48:46.505Z,29.80
2023-05-05T02:52:48.958Z,26.30
2023-05-05T02:56:54.440Z,24.20
2023-05-05T03:01:15.113Z,26.08
2023-05-05T03:05:21.545Z,28.02
2023-05-05T03:09:47.452Z,23.40
2023-05-05T03:14:01.348Z,23.17
2023-05-05T03:18:04.459Z,23.55
2023-05-05T03:22:07.269Z,24.90
2023-05-05T03:26:09.759Z,21.52
2023-05-05T03:30:16.527Z,27.63
2023-05-05T03:34:23.997Z,28.17
2023-05-05T03:38:26.569Z,23.85
2023-05-05T03:42:29.586Z,29.50
2023-05-05T03:46:31.708Z,30.85
2023-05-05T03:50:33.767Z,31.13
2023-05-05T03:54:36.034Z,32.75
2023-05-05T03:58:38.071Z,28.23
2023-05-05T04:02:40.172Z,26.60
2023-05-05T04:06:44.402Z,29.40
2023-05-05T04:10:47.804Z,51.85
2023-05-05T04:14:50.630Z,34.20
2023-05-05T04:18:52.931Z,31.40
2023-05-05T04:22:55.284Z,24.63
2023-05-05T04:26:58.132Z,20.42
2023-05-05T04:31:01.236Z,21.88
2023-05-05T04:35:06.292Z,20.33
2023-05-05T04:39:08.684Z,21.92
2023-05-05T04:43:11.411Z,27.63
2023-05-05T04:47:14.778Z,23.58
2023-05-05T04:51:17.727Z,22.17
2023-05-05T04:55:20.000Z,16.38
2023-05-05T04:59:22.027Z,16.55
2023-05-05T05:03:24.951Z,29.02
2023-05-05T05:07:27.214Z,19.80
2023-05-05T05:11:29.472Z,19.50
2023-05-05T05:15:31.538Z,20.08
2023-05-05T05:19:33.765Z,15.20
2023-05-05T05:23:36.088Z,17.45
2023-05-05T05:27:38.420Z,13.32
2023-05-05T05:31:40.691Z,12.70
2023-05-05T05:35:42.989Z,10.95
2023-05-05T05:39:51.390Z,10.95
2023-05-05T05:43:54.012Z,13.85
2023-05-05T05:47:56.816Z,16.10
2023-05-05T05:51:58.851Z,10.80
2023-05-05T05:56:01.543Z,9.60
2023-05-05T06:00:05.063Z,9.38
2023-05-05T06:04:13.802Z,13.20
2023-05-05T06:08:16.331Z,9.88
2023-05-05T06:12:22.872Z,7.85
2023-05-05T06:16:25.213Z,13.95
2023-05-05T06:20:27.780Z,8.23
2023-05-05T06:24:32.055Z,10.32
2023-05-05T06:28:35.287Z,9.77
2023-05-05T06:32:37.493Z,8.95
2023-05-05T06:36:39.639Z,13.85
2023-05-05T06:40:42.101Z,5.80
2023-05-05T06:44:44.192Z,12.20
2023-05-05T06:48:46.132Z,10.43
2023-05-05T06:52:48.222Z,7.05
2023-05-05T06:56:50.387Z,8.68
2023-05-05T07:00:52.534Z,7.32
2023-05-05T07:04:55.491Z,6.43
2023-05-05T07:08:58.023Z,7.10
2023-05-05T07:13:00.186Z,6.70
2023-05-05T07:17:02.217Z,8.45
2023-05-05T07:21:06.565Z,10.05
2023-05-05T07:25:08.723Z,6.40
2023-05-05T07:29:10.711Z,9.32
2023-05-05T07:33:12.790Z,7.40
2023-05-05T07:37:14.860Z,7.95
2023-05-05T07:41:18.427Z,7.25
2023-05-05T07:45:20.857Z,10.23
2023-05-05T07:49:22.862Z,10.10
2023-05-05T07:53:24.933Z,14.10
2023-05-05T07:57:26.969Z,7.97
2023-05-05T08:01:29.303Z,11.98
2023-05-05T08:05:31.258Z,8.32
2023-05-05T08:09:33.307Z,7.90
2023-05-05T08:13:35.507Z,11.15
2023-05-05T08:17:51.758Z,7.53
2023-05-05T08:21:53.874Z,12.35
2023-05-05T08:25:56.004Z,7.22
2023-05-05T08:29:58.285Z,6.90
2023-05-05T08:34:00.278Z,10.43
2023-05-05T08:38:02.401Z,9.75
2023-05-05T08:42:04.841Z,11.65
2023-05-05T08:46:11.284Z,10.98
2023-05-05T08:50:14.013Z,15.15
2023-05-05T08:54:19.811Z,10.88
2023-05-05T08:58:26.932Z,9.18
2023-05-05T09:02:31.479Z,7.72
2023-05-05T09:06:34.346Z,6.65
2023-05-05T09:10:40.010Z,9.85
2023-05-05T09:14:42.040Z,6.55
2023-05-05T09:18:45.492Z,6.13
2023-05-05T09:22:48.148Z,7.55
2023-05-05T09:26:50.603Z,6.60
2023-05-05T09:30:52.779Z,6.70
2023-05-05T09:34:59.736Z,7.88
2023-05-05T09:39:06.352Z,5.65
2023-05-05T09:43:08.551Z,6.03
2023-05-05T09:47:26.124Z,9.57
2023-05-05T09:51:31.784Z,10.20
2023-05-05T09:55:33.841Z,11.63
2023-05-05T09:59:36.046Z,7.63
2023-05-05T10:03:51.411Z,5.15
2023-05-05T10:07:53.483Z,11.63
2023-05-05T10:11:59.304Z,6.68
2023-05-05T10:16:03.828Z,3.92
2023-05-05T10:20:08.748Z,7.03
2023-05-05T10:24:34.609Z,8.80
2023-05-05T10:28:56.096Z,5.60
2023-05-05T10:33:31.196Z,10.25
2023-05-05T10:37:37.486Z,6.28
2023-05-05T10:41:39.736Z,13.60
2023-05-05T10:45:43.049Z,8.20
2023-05-05T10:49:57.183Z,3.63
2023-05-05T10:54:10.305Z,4.13
2023-05-05T10:58:31.697Z,4.13
2023-05-05T11:02:34.098Z,4.95
2023-05-05T11:06:36.287Z,4.40
2023-05-05T11:10:44.805Z,7.07
2023-05-05T11:14:46.896Z,10.00
2023-05-05T11:18:48.964Z,7.70
2023-05-05T11:23:03.427Z,10.52
2023-05-05T11:27:05.750Z,9.05
2023-05-05T11:31:07.769Z,4.88
2023-05-05T11:35:10.101Z,10.27
2023-05-05T11:39:33.116Z,12.13
2023-05-05T11:43:35.148Z,5.32
2023-05-05T11:47:38.549Z,9.50
2023-05-05T11:51:40.815Z,7.93
2023-05-05T11:55:42.918Z,8.68
2023-05-05T11:59:59.630Z,7.00
2023-05-05T12:04:02.222Z,6.20
2023-05-05T12:08:04.855Z,6.22
2023-05-05T12:12:07.404Z,10.30
2023-05-05T12:16:11.167Z,8.63
2023-05-05T12:20:13.546Z,8.02
2023-05-05T12:24:15.777Z,5.72
2023-05-05T12:28:17.773Z,6.65
2023-05-05T12:32:28.075Z,5.00
2023-05-05T12:36:30.821Z,3.38
2023-05-05T12:41:00.428Z,5.20
2023-05-05T12:45:02.084Z,5.60
2023-05-05T12:49:07.598Z,7.00
2023-05-05T12:53:09.918Z,6.55
2023-05-05T12:57:12.068Z,5.15
2023-05-05T13:01:14.120Z,6.78
2023-05-05T13:05:16.190Z,6.10
2023-05-05T13:09:26.426Z,7.50
2023-05-05T13:13:32.040Z,6.05
2023-05-05T13:17:34.889Z,6.28
2023-05-05T13:21:37.112Z,7.65
2023-05-05T13:25:39.138Z,9.88
2023-05-05T13:29:41.773Z,9.00
2023-05-05T13:33:43.837Z,4.18
2023-05-05T13:37:47.505Z,8.43
2023-05-05T13:41:49.593Z,7.97
2023-05-05T13:45:53.206Z,9.95
2023-05-05T13:49:56.186Z,9.48
2023-05-05T13:53:58.246Z,13.90
2023-05-05T13:58:00.252Z,7.72
2023-05-05T14:02:02.397Z,7.22
2023-05-05T14:06:04.717Z,9.98
2023-05-05T14:10:07.512Z,8.75
2023-05-05T14:14:09.602Z,7.53
2023-05-05T14:18:12.767Z,7.97
2023-05-05T14:22:14.746Z,12.50
2023-05-05T14:26:16.861Z,7.55
2023-05-05T14:30:19.009Z,8.10
2023-05-05T14:34:21.057Z,11.95
2023-05-05T14:38:23.128Z,15.32
2023-05-05T14:42:26.319Z,12.48
2023-05-05T14:46:28.395Z,5.53
2023-05-05T14:50:30.418Z,8.18
2023-05-05T14:54:32.519Z,8.30
2023-05-05T14:58:34.698Z,9.77
2023-05-05T15:02:36.810Z,9.02
2023-05-05T15:06:39.073Z,7.80
2023-05-05T15:10:41.206Z,15.05
2023-05-05T15:14:43.293Z,5.82
2023-05-05T15:18:45.432Z,6.75
2023-05-05T15:22:48.990Z,8.27
2023-05-05T15:26:51.565Z,12.38
2023-05-05T15:30:56.637Z,6.47
2023-05-05T15:34:58.666Z,6.65
2023-05-05T15:39:00.862Z,8.18
2023-05-05T15:43:02.897Z,5.95
2023-05-05T15:47:05.421Z,4.15
2023-05-05T15:51:07.617Z,6.47
2023-05-05T15:55:10.392Z,8.23
2023-05-05T15:59:12.562Z,7.40
2023-05-05T16:03:14.753Z,6.90
2023-05-05T16:07:17.230Z,14.52
2023-05-05T16:11:21.818Z,18.38
2023-05-05T16:15:24.388Z,17.15
2023-05-05T16:19:29.763Z,5.78
2023-05-05T16:23:31.923Z,5.35
2023-05-05T16:27:33.938Z,6.28
2023-05-05T16:31:36.101Z,7.65
2023-05-05T16:35:38.203Z,8.65
2023-05-05T16:39:41.157Z,9.25
2023-05-05T16:43:43.254Z,11.32
2023-05-05T16:47:45.284Z,8.70
2023-05-05T16:51:47.379Z,5.75
2023-05-05T16:55:53.431Z,5.72
2023-05-05T16:59:56.351Z,6.95
2023-05-05T17:04:02.314Z,5.80
2023-05-05T17:08:04.852Z,7.30
2023-05-05T17:12:07.133Z,5.15
2023-05-05T17:16:09.305Z,8.32
2023-05-05T17:20:12.055Z,4.45
2023-05-05T17:24:14.117Z,4.28
2023-05-05T17:28:17.454Z,7.90
2023-05-05T17:32:19.608Z,4.70
2023-05-05T17:36:21.558Z,6.43
2023-05-05T17:40:23.678Z,4.68
2023-05-05T17:44:25.762Z,3.78
2023-05-05T17:48:27.971Z,6.13
2023-05-05T17:52:30.010Z,6.05
2023-05-05T17:56:32.148Z,6.03
2023-05-05T18:00:34.150Z,6.18
2023-05-05T18:04:36.872Z,6.53
2023-05-05T18:08:38.892Z,6.60
2023-05-05T18:12:41.288Z,7.93
2023-05-05T18:16:48.665Z,9.15
2023-05-05T18:20:50.745Z,7.63
2023-05-05T18:24:58.832Z,9.05
2023-05-05T18:29:01.200Z,4.75
2023-05-05T18:33:03.297Z,13.00
2023-05-05T18:37:05.348Z,11.63
2023-05-05T18:41:07.343Z,7.15
2023-05-05T18:45:11.290Z,5.57
2023-05-05T18:49:13.486Z,8.00
2023-05-05T18:53:17.724Z,6.50
2023-05-05T18:57:19.759Z,11.30
2023-05-05T19:01:22.179Z,8.10
2023-05-05T19:05:24.569Z,11.30
2023-05-05T19:09:27.455Z,8.27
2023-05-05T19:13:29.408Z,16.05
2023-05-05T19:17:31.527Z,14.45
2023-05-05T19:21:33.731Z,13.10
2023-05-05T19:25:36.333Z,14.00
2023-05-05T19:29:39.140Z,16.85
2023-05-05T19:33:45.428Z,17.30
2023-05-05T19:37:47.665Z,12.80
2023-05-05T19:41:49.710Z,14.02
2023-05-05T19:45:51.772Z,12.20
2023-05-05T19:49:53.890Z,18.67
2023-05-05T19:53:55.862Z,13.55
2023-05-05T19:57:58.088Z,15.27
2023-05-05T20:02:00.700Z,25.85
2023-05-05T20:06:02.911Z,20.15
2023-05-05T20:10:05.525Z,22.58
2023-05-05T20:14:07.528Z,16.80
2023-05-05T20:18:09.479Z,17.23
2023-05-05T20:22:11.568Z,17.42
2023-05-05T20:26:13.779Z,11.73
2023-05-05T20:30:16.038Z,10.20
2023-05-05T20:34:18.144Z,19.92
2023-05-05T20:38:20.274Z,14.88
2023-05-05T20:42:23.024Z,14.40
2023-05-05T20:46:25.504Z,21.45
2023-05-05T20:50:27.512Z,14.40
2023-05-05T20:54:36.442Z,13.77
2023-05-05T20:58:38.600Z,12.02
2023-05-05T21:02:40.836Z,14.18
2023-05-05T21:06:42.864Z,11.65
2023-05-05T21:10:44.998Z,11.15
2023-05-05T21:14:46.979Z,16.08
2023-05-05T21:18:49.041Z,13.90
2023-05-05T21:22:51.144Z,12.32
2023-05-05T21:26:53.435Z,11.07
2023-05-05T21:31:19.588Z,14.75
2023-05-05T21:35:17.414Z,13.40
2023-05-05T21:39:19.428Z,14.60
2023-05-05T21:43:21.476Z,12.43
2023-05-05T21:47:23.583Z,17.92
2023-05-05T21:51:25.706Z,15.00
2023-05-05T21:55:27.697Z,16.40
2023-05-05T21:59:29.786Z,14.77
2023-05-05T22:03:31.860Z,14.35
2023-05-05T22:07:34.086Z,19.08
2023-05-05T22:11:36.541Z,16.50
2023-05-05T22:15:45.989Z,15.98
2023-05-05T22:19:48.972Z,16.75
2023-05-05T22:23:51.169Z,14.80
2023-05-05T22:27:53.123Z,12.35
2023-05-05T22:31:55.230Z,14.55
2023-05-05T22:35:57.344Z,16.92
2023-05-05T22:39:59.718Z,12.40
2023-05-05T22:44:01.795Z,17.23
2023-05-05T22:48:04.111Z,14.63
2023-05-05T22:52:06.154Z,14.13
2023-05-05T22:56:08.205Z,14.80
2023-05-05T23:00:10.776Z,14.05
2023-05-05T23:04:12.828Z,17.25
2023-05-05T23:08:14.951Z,14.50
2023-05-05T23:12:17.589Z,17.20
2023-05-05T23:16:19.220Z,16.30
2023-05-05T23:20:21.325Z,17.67
2023-05-05T23:24:23.422Z,14.13
2023-05-05T23:28:25.545Z,13.02
2023-05-05T23:32:27.599Z,14.00
2023-05-05T23:36:29.768Z,14.73
2023-05-05T23:40:31.972Z,11.57
2023-05-05T23:44:34.037Z,11.02
2023-05-05T23:48:36.058Z,13.18
2023-05-05T23:52:38.069Z,14.55
2023-05-05T23:56:41.067Z,20.33
